sensor_id;sensor_type;location;lat;lon;timestamp;pressure;altitude;pressure_sealevel;temperature;humidity
37860;BME280;23698;52.014;5.190;2022-07-25T00:00:09;100999.19;;;22.21;100.00
37860;BME280;23698;52.014;5.190;2022-07-25T00:03:15;100990.09;;;22.21;100.00
37860;BME280;23698;52.014;5.190;2022-07-25T00:06:22;100975.97;;;22.17;100.00
37860;BME280;23698;52.014;5.190;2022-07-25T00:09:27;100973.19;;;22.17;100.00
37860;BME280;23698;52.014;5.190;2022-07-25T00:12:32;100971.56;;;22.16;100.00
37860;BME280;23698;52.014;5.190;2022-07-25T00:15:39;100960.50;;;22.16;100.00
37860;BME280;23698;52.014;5.190;2022-07-25T00:18:44;100963.28;;;22.16;100.00
37860;BME280;23698;52.014;5.190;2022-07-25T00:21:50;100953.31;;;22.15;100.00
37860;BME280;23698;52.014;5.190;2022-07-25T00:24:56;100946.94;;;22.10;100.00
37860;BME280;23698;52.014;5.190;2022-07-25T00:28:02;100945.22;;;21.98;100.00
37860;BME280;23698;52.014;5.190;2022-07-25T00:31:09;100933.59;;;21.96;100.00
37860;BME280;23698;52.014;5.190;2022-07-25T00:34:14;100934.41;;;21.92;100.00
37860;BME280;23698;52.014;5.190;2022-07-25T00:37:20;100933.84;;;21.90;100.00
37860;BME280;23698;52.014;5.190;2022-07-25T00:40:26;100928.84;;;21.86;100.00
37860;BME280;23698;52.014;5.190;2022-07-25T00:43:31;100929.59;;;21.77;100.00
37860;BME280;23698;52.014;5.190;2022-07-25T00:46:38;100927.69;;;21.77;100.00
37860;BME280;23698;52.014;5.190;2022-07-25T00:49:44;100911.34;;;21.71;100.00
37860;BME280;23698;52.014;5.190;2022-07-25T00:52:50;100909.13;;;21.67;100.00
37860;BME280;23698;52.014;5.190;2022-07-25T00:55:56;100905.50;;;21.62;100.00
37860;BME280;23698;52.014;5.190;2022-07-25T00:59:02;100906.53;;;21.56;100.00
37860;BME280;23698;52.014;5.190;2022-07-25T01:02:09;100897.22;;;21.62;100.00
37860;BME280;23698;52.014;5.190;2022-07-25T01:05:15;100903.47;;;21.52;100.00
37860;BME280;23698;52.014;5.190;2022-07-25T01:08:21;100897.03;;;21.41;100.00
37860;BME280;23698;52.014;5.190;2022-07-25T01:11:27;100898.06;;;21.35;100.00
37860;BME280;23698;52.014;5.190;2022-07-25T01:14:32;100900.81;;;21.35;100.00
37860;BME280;23698;52.014;5.190;2022-07-25T01:17:39;100914.34;;;21.37;100.00
37860;BME280;23698;52.014;5.190;2022-07-25T01:20:46;100914.59;;;21.35;100.00
37860;BME280;23698;52.014;5.190;2022-07-25T01:23:51;100909.69;;;21.37;100.00
37860;BME280;23698;52.014;5.190;2022-07-25T01:26:56;100895.00;;;21.31;100.00
37860;BME280;23698;52.014;5.190;2022-07-25T01:30:01;100906.38;;;21.40;100.00
37860;BME280;23698;52.014;5.190;2022-07-25T01:33:07;100905.56;;;21.40;100.00
37860;BME280;23698;52.014;5.190;2022-07-25T01:36:14;100899.16;;;21.34;100.00
37860;BME280;23698;52.014;5.190;2022-07-25T01:39:19;100896.59;;;21.22;100.00
37860;BME280;23698;52.014;5.190;2022-07-25T01:42:25;100899.84;;;21.19;100.00
37860;BME280;23698;52.014;5.190;2022-07-25T01:45:31;100887.69;;;21.15;100.00
37860;BME280;23698;52.014;5.190;2022-07-25T01:48:36;100885.16;;;21.08;100.00
37860;BME280;23698;52.014;5.190;2022-07-25T01:51:43;100882.59;;;21.02;100.00
37860;BME280;23698;52.014;5.190;2022-07-25T01:54:49;100880.38;;;20.99;100.00
37860;BME280;23698;52.014;5.190;2022-07-25T01:57:54;100871.44;;;20.86;100.00
37860;BME280;23698;52.014;5.190;2022-07-25T02:00:59;100868.09;;;20.84;100.00
37860;BME280;23698;52.014;5.190;2022-07-25T02:04:05;100857.63;;;20.81;100.00
37860;BME280;23698;52.014;5.190;2022-07-25T02:07:12;100860.69;;;20.85;100.00
37860;BME280;23698;52.014;5.190;2022-07-25T02:10:18;100856.19;;;20.79;100.00
37860;BME280;23698;52.014;5.190;2022-07-25T02:13:24;100860.06;;;20.78;100.00
37860;BME280;23698;52.014;5.190;2022-07-25T02:16:30;100859.47;;;20.75;100.00
37860;BME280;23698;52.014;5.190;2022-07-25T02:19:35;100854.69;;;20.66;100.00
37860;BME280;23698;52.014;5.190;2022-07-25T02:22:42;100850.78;;;20.62;100.00
37860;BME280;23698;52.014;5.190;2022-07-25T02:25:47;100846.03;;;20.57;100.00
37860;BME280;23698;52.014;5.190;2022-07-25T02:28:52;100845.19;;;20.56;100.00
37860;BME280;23698;52.014;5.190;2022-07-25T02:31:58;100842.44;;;20.56;100.00
37860;BME280;23698;52.014;5.190;2022-07-25T02:35:05;100832.47;;;20.50;100.00
37860;BME280;23698;52.014;5.190;2022-07-25T02:38:17;100820.25;;;20.41;100.00
37860;BME280;23698;52.014;5.190;2022-07-25T02:41:23;100825.66;;;20.31;100.00
37860;BME280;23698;52.014;5.190;2022-07-25T02:44:28;100814.31;;;20.27;100.00
37860;BME280;23698;52.014;5.190;2022-07-25T02:47:34;100803.75;;;20.19;100.00
37860;BME280;23698;52.014;5.190;2022-07-25T02:50:39;100810.34;;;20.18;100.00
37860;BME280;23698;52.014;5.190;2022-07-25T02:53:46;100800.69;;;20.15;100.00
37860;BME280;23698;52.014;5.190;2022-07-25T02:57:01;100803.63;;;20.09;100.00
37860;BME280;23698;52.014;5.190;2022-07-25T03:00:08;100795.25;;;19.98;100.00
37860;BME280;23698;52.014;5.190;2022-07-25T03:03:13;100793.78;;;19.91;100.00
37860;BME280;23698;52.014;5.190;2022-07-25T03:06:19;100792.03;;;19.85;100.00
37860;BME280;23698;52.014;5.190;2022-07-25T03:09:26;100792.50;;;19.76;100.00
37860;BME280;23698;52.014;5.190;2022-07-25T03:12:31;100790.81;;;19.75;100.00
37860;BME280;23698;52.014;5.190;2022-07-25T03:15:37;100788.97;;;19.81;100.00
37860;BME280;23698;52.014;5.190;2022-07-25T03:18:42;100778.84;;;19.87;100.00
37860;BME280;23698;52.014;5.190;2022-07-25T03:21:47;100775.78;;;19.83;100.00
37860;BME280;23698;52.014;5.190;2022-07-25T03:24:54;100769.22;;;19.84;100.00
37860;BME280;23698;52.014;5.190;2022-07-25T03:27:59;100775.03;;;19.88;100.00
37860;BME280;23698;52.014;5.190;2022-07-25T03:31:05;100763.25;;;19.92;100.00
37860;BME280;23698;52.014;5.190;2022-07-25T03:34:10;100764.09;;;19.93;100.00
37860;BME280;23698;52.014;5.190;2022-07-25T03:37:15;100772.72;;;20.02;100.00
37860;BME280;23698;52.014;5.190;2022-07-25T03:40:22;100776.56;;;20.00;100.00
37860;BME280;23698;52.014;5.190;2022-07-25T03:43:29;100780.16;;;20.01;100.00
37860;BME280;23698;52.014;5.190;2022-07-25T03:46:34;100766.72;;;20.05;100.00
37860;BME280;23698;52.014;5.190;2022-07-25T03:49:40;100771.31;;;19.99;100.00
37860;BME280;23698;52.014;5.190;2022-07-25T03:52:45;100758.72;;;20.03;100.00
37860;BME280;23698;52.014;5.190;2022-07-25T03:55:52;100756.47;;;20.00;100.00
37860;BME280;23698;52.014;5.190;2022-07-25T03:58:57;100753.22;;;20.03;100.00
37860;BME280;23698;52.014;5.190;2022-07-25T04:02:03;100746.03;;;20.02;100.00
37860;BME280;23698;52.014;5.190;2022-07-25T04:05:09;100757.59;;;20.04;100.00
37860;BME280;23698;52.014;5.190;2022-07-25T04:08:14;100769.28;;;20.11;100.00
37860;BME280;23698;52.014;5.190;2022-07-25T04:11:21;100767.91;;;20.14;100.00
37860;BME280;23698;52.014;5.190;2022-07-25T04:14:27;100767.16;;;20.18;100.00
37860;BME280;23698;52.014;5.190;2022-07-25T04:17:32;100777.38;;;20.23;100.00
37860;BME280;23698;52.014;5.190;2022-07-25T04:20:40;100776.03;;;20.26;100.00
37860;BME280;23698;52.014;5.190;2022-07-25T04:23:46;100778.00;;;20.30;100.00
37860;BME280;23698;52.014;5.190;2022-07-25T04:26:52;100771.41;;;20.31;100.00
37860;BME280;23698;52.014;5.190;2022-07-25T04:29:58;100764.59;;;20.39;100.00
37860;BME280;23698;52.014;5.190;2022-07-25T04:33:03;100764.72;;;20.49;100.00
37860;BME280;23698;52.014;5.190;2022-07-25T04:36:08;100758.75;;;20.58;100.00
37860;BME280;23698;52.014;5.190;2022-07-25T04:39:14;100761.88;;;20.66;100.00
37860;BME280;23698;52.014;5.190;2022-07-25T04:42:20;100756.38;;;20.66;100.00
37860;BME280;23698;52.014;5.190;2022-07-25T04:45:25;100761.97;;;20.77;100.00
37860;BME280;23698;52.014;5.190;2022-07-25T04:48:31;100755.94;;;20.80;100.00
37860;BME280;23698;52.014;5.190;2022-07-25T04:51:36;100750.97;;;20.77;100.00
37860;BME280;23698;52.014;5.190;2022-07-25T04:54:42;100756.16;;;20.73;100.00
37860;BME280;23698;52.014;5.190;2022-07-25T04:57:49;100758.16;;;20.78;100.00
37860;BME280;23698;52.014;5.190;2022-07-25T05:00:54;100739.59;;;20.68;100.00
37860;BME280;23698;52.014;5.190;2022-07-25T05:04:00;100742.69;;;20.77;100.00
37860;BME280;23698;52.014;5.190;2022-07-25T05:07:05;100738.00;;;20.77;100.00
37860;BME280;23698;52.014;5.190;2022-07-25T05:10:11;100749.53;;;20.69;100.00
37860;BME280;23698;52.014;5.190;2022-07-25T05:13:17;100752.84;;;20.71;100.00
37860;BME280;23698;52.014;5.190;2022-07-25T05:16:24;100753.19;;;20.80;100.00
37860;BME280;23698;52.014;5.190;2022-07-25T05:19:29;100762.38;;;20.90;100.00
37860;BME280;23698;52.014;5.190;2022-07-25T05:22:34;100749.31;;;21.13;100.00
37860;BME280;23698;52.014;5.190;2022-07-25T05:25:40;100754.34;;;21.26;100.00
37860;BME280;23698;52.014;5.190;2022-07-25T05:28:47;100756.63;;;21.35;100.00
37860;BME280;23698;52.014;5.190;2022-07-25T05:31:52;100753.69;;;21.46;100.00
37860;BME280;23698;52.014;5.190;2022-07-25T05:34:58;100763.41;;;21.59;100.00
37860;BME280;23698;52.014;5.190;2022-07-25T05:38:04;100763.50;;;21.75;100.00
37860;BME280;23698;52.014;5.190;2022-07-25T05:41:09;100761.31;;;21.82;100.00
37860;BME280;23698;52.014;5.190;2022-07-25T05:44:16;100766.03;;;21.86;100.00
37860;BME280;23698;52.014;5.190;2022-07-25T05:47:21;100767.69;;;21.87;100.00
37860;BME280;23698;52.014;5.190;2022-07-25T05:50:27;100771.84;;;21.90;100.00
37860;BME280;23698;52.014;5.190;2022-07-25T05:53:33;100780.19;;;22.00;100.00
37860;BME280;23698;52.014;5.190;2022-07-25T05:56:38;100782.34;;;21.93;100.00
37860;BME280;23698;52.014;5.190;2022-07-25T05:59:45;100782.88;;;21.90;100.00
37860;BME280;23698;52.014;5.190;2022-07-25T06:02:51;100788.22;;;22.07;100.00
37860;BME280;23698;52.014;5.190;2022-07-25T06:05:56;100781.97;;;22.32;100.00
37860;BME280;23698;52.014;5.190;2022-07-25T06:09:02;100782.59;;;22.70;100.00
37860;BME280;23698;52.014;5.190;2022-07-25T06:12:11;100771.53;;;22.91;100.00
37860;BME280;23698;52.014;5.190;2022-07-25T06:15:18;100773.47;;;22.90;100.00
37860;BME280;23698;52.014;5.190;2022-07-25T06:18:30;100775.19;;;23.07;100.00
37860;BME280;23698;52.014;5.190;2022-07-25T06:21:35;100772.38;;;23.02;100.00
37860;BME280;23698;52.014;5.190;2022-07-25T06:24:41;100775.72;;;23.14;100.00
37860;BME280;23698;52.014;5.190;2022-07-25T06:27:46;100774.31;;;23.06;100.00
37860;BME280;23698;52.014;5.190;2022-07-25T06:30:54;100766.88;;;23.12;100.00
37860;BME280;23698;52.014;5.190;2022-07-25T06:33:59;100772.94;;;23.24;100.00
37860;BME280;23698;52.014;5.190;2022-07-25T06:37:04;100773.50;;;23.26;100.00
37860;BME280;23698;52.014;5.190;2022-07-25T06:40:09;100771.81;;;23.25;100.00
37860;BME280;23698;52.014;5.190;2022-07-25T06:43:15;100786.41;;;23.62;100.00
37860;BME280;23698;52.014;5.190;2022-07-25T06:46:21;100780.00;;;23.87;100.00
37860;BME280;23698;52.014;5.190;2022-07-25T06:49:27;100776.88;;;24.04;100.00
37860;BME280;23698;52.014;5.190;2022-07-25T06:52:32;100790.53;;;24.45;100.00
37860;BME280;23698;52.014;5.190;2022-07-25T06:55:37;100790.44;;;24.05;100.00
37860;BME280;23698;52.014;5.190;2022-07-25T06:58:43;100791.09;;;23.77;100.00
37860;BME280;23698;52.014;5.190;2022-07-25T07:01:50;100787.00;;;23.48;100.00
37860;BME280;23698;52.014;5.190;2022-07-25T07:04:55;100791.97;;;23.62;100.00
37860;BME280;23698;52.014;5.190;2022-07-25T07:08:02;100790.31;;;23.55;100.00
37860;BME280;23698;52.014;5.190;2022-07-25T07:11:08;100785.88;;;23.54;100.00
37860;BME280;23698;52.014;5.190;2022-07-25T07:14:13;100782.91;;;23.15;100.00
37860;BME280;23698;52.014;5.190;2022-07-25T07:17:20;100781.50;;;23.33;100.00
37860;BME280;23698;52.014;5.190;2022-07-25T07:20:26;100782.56;;;23.63;100.00
37860;BME280;23698;52.014;5.190;2022-07-25T07:23:32;100776.78;;;23.54;100.00
37860;BME280;23698;52.014;5.190;2022-07-25T07:26:39;100773.66;;;23.81;100.00
37860;BME280;23698;52.014;5.190;2022-07-25T07:29:45;100771.13;;;23.80;100.00
37860;BME280;23698;52.014;5.190;2022-07-25T07:32:52;100775.03;;;23.84;100.00
37860;BME280;23698;52.014;5.190;2022-07-25T07:35:57;100776.75;;;23.64;100.00
37860;BME280;23698;52.014;5.190;2022-07-25T07:39:03;100772.88;;;23.55;100.00
37860;BME280;23698;52.014;5.190;2022-07-25T07:42:08;100775.59;;;23.86;100.00
37860;BME280;23698;52.014;5.190;2022-07-25T07:45:16;100777.69;;;24.09;100.00
37860;BME280;23698;52.014;5.190;2022-07-25T07:48:23;100771.78;;;24.26;100.00
37860;BME280;23698;52.014;5.190;2022-07-25T07:51:28;100776.66;;;24.50;100.00
37860;BME280;23698;52.014;5.190;2022-07-25T07:54:33;100787.47;;;24.46;100.00
37860;BME280;23698;52.014;5.190;2022-07-25T07:58:02;100778.00;;;24.53;100.00
37860;BME280;23698;52.014;5.190;2022-07-25T08:01:08;100768.41;;;24.79;100.00
37860;BME280;23698;52.014;5.190;2022-07-25T08:04:15;100774.69;;;24.56;100.00
37860;BME280;23698;52.014;5.190;2022-07-25T08:07:20;100778.81;;;24.58;100.00
37860;BME280;23698;52.014;5.190;2022-07-25T08:10:28;100782.75;;;24.47;100.00
37860;BME280;23698;52.014;5.190;2022-07-25T08:13:34;100787.59;;;24.26;100.00
37860;BME280;23698;52.014;5.190;2022-07-25T08:16:41;100792.19;;;23.86;100.00
37860;BME280;23698;52.014;5.190;2022-07-25T08:19:48;100788.28;;;23.87;100.00
37860;BME280;23698;52.014;5.190;2022-07-25T08:22:53;100794.22;;;23.39;100.00
37860;BME280;23698;52.014;5.190;2022-07-25T08:26:00;100803.38;;;23.19;100.00
37860;BME280;23698;52.014;5.190;2022-07-25T08:29:05;100801.97;;;23.32;100.00
37860;BME280;23698;52.014;5.190;2022-07-25T08:32:23;100791.91;;;23.92;100.00
37860;BME280;23698;52.014;5.190;2022-07-25T08:35:32;100785.06;;;24.35;100.00
37860;BME280;23698;52.014;5.190;2022-07-25T08:38:39;100792.22;;;25.49;100.00
37860;BME280;23698;52.014;5.190;2022-07-25T08:41:44;100787.72;;;26.26;100.00
37860;BME280;23698;52.014;5.190;2022-07-25T08:44:57;100792.28;;;25.97;100.00
37860;BME280;23698;52.014;5.190;2022-07-25T08:48:04;100792.94;;;25.84;100.00
37860;BME280;23698;52.014;5.190;2022-07-25T08:51:10;100783.88;;;25.25;100.00
37860;BME280;23698;52.014;5.190;2022-07-25T08:54:16;100797.84;;;25.68;100.00
37860;BME280;23698;52.014;5.190;2022-07-25T08:57:22;100786.56;;;25.30;100.00
37860;BME280;23698;52.014;5.190;2022-07-25T09:00:28;100789.16;;;25.51;100.00
37860;BME280;23698;52.014;5.190;2022-07-25T09:03:33;100787.47;;;25.25;100.00
37860;BME280;23698;52.014;5.190;2022-07-25T09:06:49;100784.50;;;25.12;100.00
37860;BME280;23698;52.014;5.190;2022-07-25T09:09:54;100795.50;;;24.93;100.00
37860;BME280;23698;52.014;5.190;2022-07-25T09:13:00;100798.81;;;24.50;100.00
37860;BME280;23698;52.014;5.190;2022-07-25T09:16:06;100802.03;;;24.12;100.00
37860;BME280;23698;52.014;5.190;2022-07-25T09:19:14;100799.28;;;24.12;100.00
37860;BME280;23698;52.014;5.190;2022-07-25T09:22:21;100798.38;;;24.33;100.00
37860;BME280;23698;52.014;5.190;2022-07-25T09:25:27;100807.41;;;24.48;100.00
37860;BME280;23698;52.014;5.190;2022-07-25T09:28:39;100812.81;;;24.19;100.00
37860;BME280;23698;52.014;5.190;2022-07-25T09:31:45;100819.22;;;24.09;100.00
37860;BME280;23698;52.014;5.190;2022-07-25T09:34:50;100815.94;;;24.62;100.00
37860;BME280;23698;52.014;5.190;2022-07-25T09:38:07;100824.44;;;25.11;100.00
37860;BME280;23698;52.014;5.190;2022-07-25T09:41:12;100813.38;;;25.98;100.00
37860;BME280;23698;52.014;5.190;2022-07-25T09:44:18;100825.06;;;25.66;100.00
37860;BME280;23698;52.014;5.190;2022-07-25T09:47:26;100815.47;;;26.07;100.00
37860;BME280;23698;52.014;5.190;2022-07-25T09:50:32;100827.63;;;26.54;100.00
37860;BME280;23698;52.014;5.190;2022-07-25T09:53:39;100809.50;;;26.62;100.00
37860;BME280;23698;52.014;5.190;2022-07-25T09:56:44;100825.91;;;26.39;100.00
37860;BME280;23698;52.014;5.190;2022-07-25T09:59:49;100828.91;;;25.70;100.00
37860;BME280;23698;52.014;5.190;2022-07-25T10:03:10;100845.28;;;25.08;100.00
37860;BME280;23698;52.014;5.190;2022-07-25T10:06:20;100846.94;;;25.09;100.00
37860;BME280;23698;52.014;5.190;2022-07-25T10:09:27;100851.41;;;25.05;100.00
37860;BME280;23698;52.014;5.190;2022-07-25T10:12:32;100852.44;;;25.14;100.00
37860;BME280;23698;52.014;5.190;2022-07-25T10:15:44;100849.91;;;25.52;100.00
37860;BME280;23698;52.014;5.190;2022-07-25T10:18:51;100853.00;;;26.47;100.00
37860;BME280;23698;52.014;5.190;2022-07-25T10:21:57;100859.03;;;26.35;100.00
37860;BME280;23698;52.014;5.190;2022-07-25T10:25:10;100855.78;;;26.04;100.00
37860;BME280;23698;52.014;5.190;2022-07-25T10:28:17;100852.78;;;26.25;100.00
37860;BME280;23698;52.014;5.190;2022-07-25T10:31:25;100864.13;;;26.04;100.00
37860;BME280;23698;52.014;5.190;2022-07-25T10:34:31;100866.44;;;25.68;100.00
37860;BME280;23698;52.014;5.190;2022-07-25T10:37:38;100871.47;;;25.31;100.00
37860;BME280;23698;52.014;5.190;2022-07-25T10:40:51;100878.66;;;25.37;100.00
37860;BME280;23698;52.014;5.190;2022-07-25T10:43:59;100875.00;;;26.25;100.00
37860;BME280;23698;52.014;5.190;2022-07-25T10:47:08;100898.22;;;26.10;100.00
37860;BME280;23698;52.014;5.190;2022-07-25T10:50:17;100891.13;;;25.69;100.00
37860;BME280;23698;52.014;5.190;2022-07-25T10:53:43;100898.28;;;25.46;100.00
37860;BME280;23698;52.014;5.190;2022-07-25T10:56:53;100895.88;;;25.34;100.00
37860;BME280;23698;52.014;5.190;2022-07-25T11:00:04;100912.28;;;24.81;100.00
37860;BME280;23698;52.014;5.190;2022-07-25T11:03:11;100904.94;;;25.00;100.00
37860;BME280;23698;52.014;5.190;2022-07-25T11:06:29;100912.81;;;24.83;100.00
37860;BME280;23698;52.014;5.190;2022-07-25T11:09:35;100910.91;;;24.03;100.00
37860;BME280;23698;52.014;5.190;2022-07-25T11:12:44;100911.47;;;23.94;100.00
37860;BME280;23698;52.014;5.190;2022-07-25T11:15:50;100906.06;;;24.39;100.00
37860;BME280;23698;52.014;5.190;2022-07-25T11:18:56;100908.31;;;24.32;100.00
37860;BME280;23698;52.014;5.190;2022-07-25T11:22:02;100914.53;;;25.23;100.00
37860;BME280;23698;52.014;5.190;2022-07-25T11:25:10;100903.75;;;25.17;100.00
37860;BME280;23698;52.014;5.190;2022-07-25T11:28:18;100909.78;;;25.29;100.00
37860;BME280;23698;52.014;5.190;2022-07-25T11:31:23;100908.41;;;25.21;100.00
37860;BME280;23698;52.014;5.190;2022-07-25T11:34:30;100917.56;;;24.77;100.00
37860;BME280;23698;52.014;5.190;2022-07-25T11:37:38;100926.69;;;23.92;100.00
37860;BME280;23698;52.014;5.190;2022-07-25T11:40:43;100914.81;;;23.81;100.00
37860;BME280;23698;52.014;5.190;2022-07-25T11:43:50;100921.44;;;23.44;100.00
37860;BME280;23698;52.014;5.190;2022-07-25T11:46:55;100930.56;;;23.19;100.00
37860;BME280;23698;52.014;5.190;2022-07-25T11:50:02;100934.16;;;23.19;100.00
37860;BME280;23698;52.014;5.190;2022-07-25T11:53:10;100931.31;;;22.99;100.00
37860;BME280;23698;52.014;5.190;2022-07-25T11:56:19;100941.78;;;22.81;100.00
37860;BME280;23698;52.014;5.190;2022-07-25T11:59:46;100939.94;;;22.39;100.00
37860;BME280;23698;52.014;5.190;2022-07-25T12:02:52;100943.53;;;22.40;100.00
37860;BME280;23698;52.014;5.190;2022-07-25T12:06:06;100953.94;;;22.75;100.00
37860;BME280;23698;52.014;5.190;2022-07-25T12:09:16;100950.88;;;22.82;100.00
37860;BME280;23698;52.014;5.190;2022-07-25T12:12:22;100953.41;;;22.94;100.00
37860;BME280;23698;52.014;5.190;2022-07-25T12:15:31;100950.47;;;23.21;100.00
37860;BME280;23698;52.014;5.190;2022-07-25T12:18:36;100945.53;;;23.44;100.00
37860;BME280;23698;52.014;5.190;2022-07-25T12:21:43;100949.94;;;23.29;100.00
37860;BME280;23698;52.014;5.190;2022-07-25T12:24:48;100952.16;;;23.58;100.00
37860;BME280;23698;52.014;5.190;2022-07-25T12:27:53;100949.69;;;23.77;100.00
37860;BME280;23698;52.014;5.190;2022-07-25T12:30:59;100954.69;;;23.85;100.00
37860;BME280;23698;52.014;5.190;2022-07-25T12:34:05;100953.59;;;24.77;100.00
37860;BME280;23698;52.014;5.190;2022-07-25T12:37:11;100942.25;;;25.63;100.00
37860;BME280;23698;52.014;5.190;2022-07-25T12:40:17;100937.38;;;25.79;100.00
37860;BME280;23698;52.014;5.190;2022-07-25T12:43:22;100955.06;;;25.14;100.00
37860;BME280;23698;52.014;5.190;2022-07-25T12:46:30;100952.66;;;25.47;100.00
37860;BME280;23698;52.014;5.190;2022-07-25T12:49:35;100952.06;;;25.50;100.00
37860;BME280;23698;52.014;5.190;2022-07-25T12:52:42;100957.22;;;25.22;100.00
37860;BME280;23698;52.014;5.190;2022-07-25T12:55:49;100955.78;;;25.35;100.00
37860;BME280;23698;52.014;5.190;2022-07-25T12:58:54;100959.91;;;24.93;100.00
37860;BME280;23698;52.014;5.190;2022-07-25T13:02:01;100961.66;;;25.63;100.00
37860;BME280;23698;52.014;5.190;2022-07-25T13:05:08;100964.53;;;25.53;100.00
37860;BME280;23698;52.014;5.190;2022-07-25T13:08:13;100957.09;;;25.48;100.00
37860;BME280;23698;52.014;5.190;2022-07-25T13:11:18;100952.06;;;25.85;100.00
37860;BME280;23698;52.014;5.190;2022-07-25T13:14:24;100953.88;;;25.99;100.00
37860;BME280;23698;52.014;5.190;2022-07-25T13:17:31;100942.03;;;26.66;100.00
37860;BME280;23698;52.014;5.190;2022-07-25T13:20:37;100953.13;;;27.47;100.00
37860;BME280;23698;52.014;5.190;2022-07-25T13:23:42;100943.44;;;28.24;100.00
37860;BME280;23698;52.014;5.190;2022-07-25T13:26:48;100955.78;;;26.77;100.00
37860;BME280;23698;52.014;5.190;2022-07-25T13:29:53;100948.69;;;25.58;100.00
37860;BME280;23698;52.014;5.190;2022-07-25T13:33:00;100950.06;;;26.19;100.00
37860;BME280;23698;52.014;5.190;2022-07-25T13:36:06;100963.50;;;26.12;100.00
37860;BME280;23698;52.014;5.190;2022-07-25T13:39:11;100959.13;;;26.98;100.00
37860;BME280;23698;52.014;5.190;2022-07-25T13:42:16;100961.66;;;26.51;100.00
37860;BME280;23698;52.014;5.190;2022-07-25T13:45:22;100974.66;;;26.07;100.00
37860;BME280;23698;52.014;5.190;2022-07-25T13:48:29;100973.84;;;25.33;100.00
37860;BME280;23698;52.014;5.190;2022-07-25T13:51:35;100963.84;;;25.71;100.00
37860;BME280;23698;52.014;5.190;2022-07-25T13:54:40;100967.44;;;26.06;100.00
37860;BME280;23698;52.014;5.190;2022-07-25T13:57:46;100963.25;;;26.57;100.00
37860;BME280;23698;52.014;5.190;2022-07-25T14:00:52;100973.72;;;25.82;100.00
37860;BME280;23698;52.014;5.190;2022-07-25T14:03:59;100967.13;;;25.39;100.00
37860;BME280;23698;52.014;5.190;2022-07-25T14:07:04;100972.63;;;25.44;100.00
37860;BME280;23698;52.014;5.190;2022-07-25T14:10:10;100977.31;;;25.04;100.00
37860;BME280;23698;52.014;5.190;2022-07-25T14:13:15;100979.47;;;25.12;100.00
37860;BME280;23698;52.014;5.190;2022-07-25T14:16:21;100980.66;;;25.51;100.00
37860;BME280;23698;52.014;5.190;2022-07-25T14:19:27;100979.66;;;26.05;100.00
37860;BME280;23698;52.014;5.190;2022-07-25T14:22:33;100984.53;;;25.55;100.00
37860;BME280;23698;52.014;5.190;2022-07-25T14:25:38;100980.44;;;26.11;100.00
37860;BME280;23698;52.014;5.190;2022-07-25T14:28:43;100979.53;;;26.15;100.00
37860;BME280;23698;52.014;5.190;2022-07-25T14:31:49;100981.34;;;26.79;100.00
37860;BME280;23698;52.014;5.190;2022-07-25T14:34:55;100975.88;;;26.92;100.00
37860;BME280;23698;52.014;5.190;2022-07-25T14:38:01;100977.31;;;26.90;100.00
37860;BME280;23698;52.014;5.190;2022-07-25T14:41:09;100969.00;;;27.09;100.00
37860;BME280;23698;52.014;5.190;2022-07-25T14:44:16;100978.81;;;27.01;99.42
37860;BME280;23698;52.014;5.190;2022-07-25T14:47:22;100970.22;;;26.79;100.00
37860;BME280;23698;52.014;5.190;2022-07-25T14:50:32;100974.56;;;26.66;100.00
37860;BME280;23698;52.014;5.190;2022-07-25T14:53:37;100977.56;;;26.45;100.00
37860;BME280;23698;52.014;5.190;2022-07-25T14:56:43;100979.59;;;26.64;100.00
37860;BME280;23698;52.014;5.190;2022-07-25T14:59:48;100974.91;;;26.83;100.00
37860;BME280;23698;52.014;5.190;2022-07-25T15:02:54;100981.25;;;27.08;100.00
37860;BME280;23698;52.014;5.190;2022-07-25T15:06:00;100986.00;;;25.76;100.00
37860;BME280;23698;52.014;5.190;2022-07-25T15:09:06;100989.31;;;26.61;100.00
37860;BME280;23698;52.014;5.190;2022-07-25T15:12:12;100987.16;;;26.58;100.00
37860;BME280;23698;52.014;5.190;2022-07-25T15:15:20;100988.72;;;26.40;100.00
37860;BME280;23698;52.014;5.190;2022-07-25T15:18:25;101005.09;;;26.71;100.00
37860;BME280;23698;52.014;5.190;2022-07-25T15:21:31;100990.97;;;26.67;100.00
37860;BME280;23698;52.014;5.190;2022-07-25T15:24:37;101003.78;;;27.06;100.00
37860;BME280;23698;52.014;5.190;2022-07-25T15:28:02;100997.13;;;26.11;100.00
37860;BME280;23698;52.014;5.190;2022-07-25T15:31:07;101009.13;;;26.01;100.00
37860;BME280;23698;52.014;5.190;2022-07-25T15:34:13;101021.34;;;26.29;100.00
37860;BME280;23698;52.014;5.190;2022-07-25T15:37:20;100993.31;;;25.17;100.00
37860;BME280;23698;52.014;5.190;2022-07-25T15:40:25;101005.22;;;24.63;100.00
37860;BME280;23698;52.014;5.190;2022-07-25T15:43:31;100991.56;;;25.37;100.00
37860;BME280;23698;52.014;5.190;2022-07-25T15:46:37;100993.41;;;26.93;100.00
37860;BME280;23698;52.014;5.190;2022-07-25T15:49:43;100995.53;;;27.77;100.00
37860;BME280;23698;52.014;5.190;2022-07-25T15:52:49;100996.03;;;27.79;100.00
37860;BME280;23698;52.014;5.190;2022-07-25T15:55:55;100995.59;;;27.91;100.00
37860;BME280;23698;52.014;5.190;2022-07-25T15:59:00;101003.03;;;27.44;100.00
37860;BME280;23698;52.014;5.190;2022-07-25T16:02:06;101006.69;;;25.94;100.00